createdAt,value
2022-08-01T04:00:59.054Z,20.70
2022-08-01T04:03:30.782Z,20.70
2022-08-01T04:06:04.935Z,20.70
2022-08-01T04:08:36.923Z,20.70
2022-08-01T04:11:09.049Z,20.70
2022-08-01T04:13:40.757Z,20.70
2022-08-01T04:16:17.562Z,20.70
2022-08-01T04:18:49.306Z,20.70
2022-08-01T04:21:23.320Z,20.70
2022-08-01T04:23:56.644Z,20.70
2022-08-01T04:26:28.336Z,20.70
2022-08-01T04:29:00.037Z,20.70
2022-08-01T04:31:33.866Z,20.70
2022-08-01T04:34:06.187Z,20.70
2022-08-01T04:36:37.947Z,20.70
2022-08-01T04:39:09.654Z,20.70
2022-08-01T04:41:41.331Z,20.70
2022-08-01T04:44:13.189Z,20.70
2022-08-01T04:46:46.222Z,20.70
2022-08-01T04:49:17.987Z,20.70
2022-08-01T04:51:52.596Z,20.70
2022-08-01T04:54:25.120Z,20.70
2022-08-01T04:56:56.925Z,20.80
2022-08-01T04:59:28.696Z,20.80
2022-08-01T05:02:01.737Z,20.80
2022-08-01T05:04:33.469Z,20.80
2022-08-01T05:07:05.176Z,20.90
2022-08-01T05:09:36.944Z,20.90
2022-08-01T05:12:09.593Z,20.80
2022-08-01T05:14:41.378Z,20.80
2022-08-01T05:17:14.409Z,20.90
2022-08-01T05:19:47.540Z,20.80
2022-08-01T05:22:19.223Z,20.90
2022-08-01T05:24:50.915Z,20.90
2022-08-01T05:27:22.590Z,20.90
2022-08-01T05:29:54.285Z,20.90
2022-08-01T05:32:27.317Z,20.80
2022-08-01T05:34:59.020Z,20.90
2022-08-01T05:37:30.695Z,20.90
2022-08-01T05:40:02.532Z,20.90
2022-08-01T05:42:34.226Z,20.80
2022-08-01T05:45:10.137Z,20.80
2022-08-01T05:47:43.303Z,21.10
2022-08-01T05:50:15.022Z,20.80
2022-08-01T05:52:46.776Z,20.80
2022-08-01T05:55:18.475Z,20.90
2022-08-01T05:57:50.147Z,20.90
2022-08-01T06:00:22.100Z,20.90
2022-08-01T06:02:55.147Z,21.00
2022-08-01T06:05:26.847Z,21.20
2022-08-01T06:07:58.538Z,21.20
2022-08-01T06:10:30.240Z,21.30
2022-08-01T06:13:01.913Z,21.50
2022-08-01T06:15:33.612Z,21.80
2022-08-01T06:18:06.659Z,22.10
2022-08-01T06:20:38.392Z,22.40
2022-08-01T06:23:31.437Z,22.60
2022-08-01T06:26:01.860Z,23.10
2022-08-01T06:28:33.540Z,23.60
2022-08-01T06:31:05.257Z,23.90
2022-08-01T06:33:38.293Z,24.10
2022-08-01T06:36:09.994Z,24.10
2022-08-01T06:38:41.668Z,23.80
2022-08-01T06:41:13.357Z,23.80
2022-08-01T06:43:45.036Z,23.50
2022-08-01T06:46:16.746Z,23.40
2022-08-01T06:48:49.827Z,23.40
2022-08-01T06:51:21.528Z,23.30
2022-08-01T06:53:53.433Z,23.30
2022-08-01T06:56:25.120Z,23.50
2022-08-01T06:58:56.803Z,23.80
2022-08-01T07:01:28.598Z,24.00
2022-08-01T07:04:02.019Z,23.80
2022-08-01T07:06:33.705Z,23.70
2022-08-01T07:09:10.790Z,23.50
2022-08-01T07:11:43.926Z,23.30
2022-08-01T07:14:15.616Z,23.10
2022-08-01T07:16:47.313Z,22.90
2022-08-01T07:19:20.340Z,22.60
2022-08-01T07:21:52.013Z,22.60
2022-08-01T07:24:23.958Z,22.60
2022-08-01T07:26:58.658Z,22.80
2022-08-01T07:29:30.354Z,22.90
2022-08-01T07:32:02.090Z,23.20
2022-08-01T07:34:35.158Z,23.50
2022-08-01T07:37:06.865Z,23.50
2022-08-01T07:39:38.570Z,23.80
2022-08-01T07:42:10.350Z,24.10
2022-08-01T07:44:42.251Z,24.70
2022-08-01T07:47:13.944Z,25.50
2022-08-01T07:49:47.053Z,25.70
2022-08-01T07:52:19.210Z,25.90
2022-08-01T07:54:52.324Z,25.90
2022-08-01T07:57:24.225Z,25.50
2022-08-01T07:59:56.377Z,25.70
2022-08-01T08:02:28.143Z,25.60
2022-08-01T08:05:01.210Z,25.90
2022-08-01T08:07:32.889Z,26.70
2022-08-01T08:10:06.356Z,26.80
2022-08-01T08:12:38.200Z,26.90
2022-08-01T08:15:10.803Z,26.30
2022-08-01T08:17:42.642Z,25.70
2022-08-01T08:20:23.430Z,25.70
2022-08-01T08:22:55.215Z,26.50
2022-08-01T08:25:26.952Z,27.50
2022-08-01T08:27:58.654Z,27.50
2022-08-01T08:30:30.520Z,27.60
2022-08-01T08:33:02.216Z,28.30
2022-08-01T08:35:53.537Z,27.70
2022-08-01T08:38:28.548Z,27.10
2022-08-01T08:41:01.714Z,26.60
2022-08-01T08:43:33.537Z,26.10
2022-08-01T08:46:05.496Z,25.90
2022-08-01T08:48:38.537Z,25.40
2022-08-01T08:51:11.670Z,25.20
2022-08-01T08:53:43.356Z,25.50
2022-08-01T08:56:15.220Z,25.20
2022-08-01T08:58:46.983Z,25.40
2022-08-01T09:01:18.701Z,25.40
2022-08-01T09:03:54.626Z,25.50
2022-08-01T09:06:27.755Z,25.80
2022-08-01T09:08:59.514Z,25.90
2022-08-01T09:11:31.294Z,25.50
2022-08-01T09:14:10.418Z,25.10
2022-08-01T09:16:48.014Z,24.40
2022-08-01T09:19:38.941Z,24.60
2022-08-01T09:22:14.517Z,24.70
2022-08-01T09:24:58.455Z,25.20
2022-08-01T09:27:30.156Z,24.60
2022-08-01T09:30:11.258Z,25.20
2022-08-01T09:32:56.333Z,25.20
2022-08-01T09:35:30.309Z,25.10
2022-08-01T09:38:15.140Z,25.30
2022-08-01T09:40:48.266Z,25.30
2022-08-01T09:43:21.766Z,25.50
2022-08-01T09:45:53.732Z,25.80
2022-08-01T09:48:29.552Z,26.60
2022-08-01T09:51:07.472Z,27.50
2022-08-01T09:53:50.945Z,28.10
2022-08-01T09:56:23.990Z,28.00
2022-08-01T09:59:00.034Z,26.90
2022-08-01T10:01:43.494Z,26.80
2022-08-01T10:04:17.411Z,26.70
2022-08-01T10:06:51.056Z,27.00
2022-08-01T10:09:39.763Z,27.10
2022-08-01T10:12:15.584Z,27.60
2022-08-01T10:14:50.282Z,27.20
2022-08-01T10:17:22.692Z,27.10
2022-08-01T10:19:54.688Z,27.20
2022-08-01T10:22:26.472Z,27.00
2022-08-01T10:25:01.000Z,26.90
2022-08-01T10:27:38.517Z,26.90
2022-08-01T10:30:19.388Z,27.30
2022-08-01T10:32:53.401Z,27.20
2022-08-01T10:35:38.073Z,27.50
2022-08-01T10:38:18.534Z,27.90
2022-08-01T10:40:51.772Z,28.80
2022-08-01T10:43:25.820Z,29.40
2022-08-01T10:45:57.583Z,29.50
2022-08-01T10:48:32.284Z,29.50
2022-08-01T10:51:17.706Z,28.50
2022-08-01T10:53:54.164Z,28.40
2022-08-01T10:56:27.760Z,27.60
2022-08-01T10:59:02.356Z,27.70
2022-08-01T11:01:38.734Z,28.10
2022-08-01T11:04:17.958Z,28.80
2022-08-01T11:06:55.534Z,28.30
2022-08-01T11:09:36.977Z,28.00
2022-08-01T11:12:13.696Z,27.70
2022-08-01T11:15:29.760Z,27.60
2022-08-01T11:18:04.540Z,27.60
2022-08-01T11:20:39.525Z,27.00
2022-08-01T11:23:16.759Z,26.50
2022-08-01T11:26:11.896Z,26.20
2022-08-01T11:29:11.018Z,26.20
2022-08-01T11:31:38.657Z,26.40
2022-08-01T11:34:10.324Z,26.50
2022-08-01T11:36:58.249Z,26.80
2022-08-01T11:39:30.369Z,26.80
2022-08-01T11:42:18.928Z,26.90
2022-08-01T11:44:52.071Z,27.10
2022-08-01T11:47:44.828Z,27.20
2022-08-01T11:50:35.828Z,27.20
2022-08-01T11:53:08.153Z,27.10
2022-08-01T11:55:39.857Z,27.10
2022-08-01T11:58:22.273Z,27.00
2022-08-01T12:01:00.416Z,27.10
2022-08-01T12:03:34.162Z,27.50
2022-08-01T12:06:06.370Z,27.90
2022-08-01T12:08:38.097Z,28.00
2022-08-01T12:11:09.784Z,28.00
2022-08-01T12:13:41.859Z,27.80
2022-08-01T12:16:14.914Z,27.00
2022-08-01T12:18:46.625Z,26.70
2022-08-01T12:21:18.325Z,26.20
2022-08-01T12:24:01.554Z,26.20
2022-08-01T12:26:40.854Z,26.10
2022-08-01T12:29:27.589Z,26.00
2022-08-01T12:32:00.634Z,26.20
2022-08-01T12:34:32.329Z,26.40
2022-08-01T12:37:04.505Z,26.50
2022-08-01T12:39:36.463Z,26.70
2022-08-01T12:42:12.233Z,26.90
2022-08-01T12:44:46.486Z,26.80
2022-08-01T12:47:19.668Z,26.40
2022-08-01T12:49:51.354Z,26.50
2022-08-01T12:52:23.205Z,26.70
2022-08-01T12:55:03.010Z,26.70
2022-08-01T12:57:37.307Z,26.70
2022-08-01T13:00:11.981Z,26.50
2022-08-01T13:02:45.277Z,26.60
2022-08-01T13:05:17.058Z,26.70
2022-08-01T13:07:50.276Z,26.60
2022-08-01T13:10:26.453Z,26.70
2022-08-01T13:12:58.832Z,26.90
2022-08-01T13:15:31.382Z,27.10
2022-08-01T13:18:24.835Z,27.10
2022-08-01T13:21:10.192Z,27.10
2022-08-01T13:24:01.908Z,27.00
2022-08-01T13:29:14.198Z,26.80
2022-08-01T13:31:45.903Z,26.80
2022-08-01T13:34:18.925Z,27.20
2022-08-01T13:36:50.646Z,27.20
2022-08-01T13:39:22.336Z,27.40
2022-08-01T13:44:26.141Z,27.50
2022-08-01T13:46:57.837Z,27.70
2022-08-01T13:49:36.418Z,27.80
2022-08-01T13:52:09.616Z,28.00
2022-08-01T13:54:41.413Z,27.90
2022-08-01T13:59:47.412Z,27.90
2022-08-01T14:10:05.105Z,27.80
2022-08-01T14:15:38.189Z,27.80
2022-08-01T14:18:11.164Z,27.20
2022-08-01T14:20:44.258Z,27.00
2022-08-01T14:23:15.954Z,27.00
2022-08-01T14:26:05.506Z,27.00
2022-08-01T14:28:38.829Z,27.00
2022-08-01T14:31:10.641Z,27.10
2022-08-01T14:33:42.509Z,27.00
2022-08-01T14:36:30.394Z,27.00
2022-08-01T14:39:03.238Z,27.00
2022-08-01T14:41:36.438Z,27.10
2022-08-01T14:44:08.128Z,27.10
2022-08-01T14:46:57.321Z,27.20
2022-08-01T14:49:30.361Z,27.10
2022-08-01T14:52:03.614Z,27.10
2022-08-01T14:54:35.533Z,27.20
2022-08-01T14:57:07.255Z,27.30
2022-08-01T14:59:38.951Z,27.50
2022-08-01T15:02:10.658Z,27.20
2022-08-01T15:04:42.338Z,27.20
2022-08-01T15:07:15.733Z,27.30
2022-08-01T15:09:47.463Z,27.30
2022-08-01T15:12:19.173Z,27.60
2022-08-01T15:14:50.892Z,27.30
2022-08-01T15:17:23.386Z,27.10
2022-08-01T15:19:55.637Z,27.10
2022-08-01T15:22:28.787Z,27.10
2022-08-01T15:25:01.053Z,27.00
2022-08-01T15:27:32.755Z,27.00
2022-08-01T15:30:04.829Z,27.10
2022-08-01T15:32:36.510Z,27.10
2022-08-01T15:35:08.345Z,27.10
2022-08-01T15:37:43.221Z,27.00
2022-08-01T15:40:15.112Z,27.10
2022-08-01T15:42:46.860Z,27.00
2022-08-01T15:45:44.418Z,26.90
2022-08-01T15:48:10.368Z,26.80
2022-08-01T15:50:42.093Z,26.60
2022-08-01T15:53:15.146Z,26.20
2022-08-01T15:55:52.298Z,26.20
2022-08-01T15:58:24.492Z,26.10
2022-08-01T16:00:56.247Z,26.10
2022-08-01T16:03:27.937Z,26.10
2022-08-01T16:05:59.670Z,26.00
2022-08-01T16:08:32.712Z,26.10
2022-08-01T16:11:04.458Z,26.10
2022-08-01T16:13:36.136Z,25.90
2022-08-01T16:16:26.013Z,25.90
2022-08-01T16:18:57.689Z,25.80
2022-08-01T16:21:29.390Z,25.80
2022-08-01T16:24:02.416Z,25.90
2022-08-01T16:26:34.120Z,26.00
2022-08-01T16:29:05.810Z,26.20
2022-08-01T16:31:53.041Z,26.10
2022-08-01T16:34:29.215Z,25.90
2022-08-01T16:37:00.938Z,26.10
2022-08-01T16:39:34.052Z,25.90
2022-08-01T16:42:07.198Z,25.90
2022-08-01T16:44:39.103Z,25.90
2022-08-01T16:47:11.229Z,25.80
2022-08-01T16:49:43.111Z,25.70
2022-08-01T16:52:14.791Z,25.30
2022-08-01T16:54:47.971Z,25.30
2022-08-01T16:57:19.668Z,25.20
2022-08-01T16:59:51.361Z,25.00
2022-08-01T17:02:23.118Z,24.90
2022-08-01T17:04:54.817Z,24.80
2022-08-01T17:07:26.534Z,24.80
2022-08-01T17:10:01.489Z,24.60
2022-08-01T17:12:33.267Z,24.70
2022-08-01T17:15:06.059Z,24.70
2022-08-01T17:17:37.777Z,24.60
2022-08-01T17:20:10.856Z,24.50
2022-08-01T17:22:42.600Z,24.40
2022-08-01T17:25:15.808Z,24.40
2022-08-01T17:27:47.787Z,24.50
2022-08-01T17:30:19.855Z,24.50
2022-08-01T17:32:51.561Z,24.60
2022-08-01T17:35:23.272Z,24.40
2022-08-01T17:37:54.988Z,24.50
2022-08-01T17:40:40.081Z,24.50
2022-08-01T17:43:12.392Z,24.50
2022-08-01T17:45:51.149Z,24.50
2022-08-01T17:48:23.059Z,24.50
2022-08-01T17:53:28.493Z,24.20
2022-08-01T17:56:01.550Z,24.40
2022-08-01T18:01:27.142Z,24.40
2022-08-01T18:03:59.144Z,24.40
2022-08-01T18:06:31.966Z,24.20
2022-08-01T18:09:11.050Z,24.10
2022-08-01T18:11:44.284Z,24.10
2022-08-01T18:14:16.215Z,23.90
2022-08-01T18:16:47.951Z,23.80
2022-08-01T18:19:19.758Z,23.80
2022-08-01T18:21:51.536Z,23.70
2022-08-01T18:27:02.444Z,23.60
2022-08-01T18:29:48.104Z,23.60
2022-08-01T18:32:20.058Z,23.50
2022-08-01T18:34:51.734Z,23.90
2022-08-01T18:37:23.432Z,23.40
2022-08-01T18:39:59.161Z,23.30
2022-08-01T18:42:33.609Z,23.30
2022-08-01T18:45:05.880Z,23.30
2022-08-01T18:47:37.585Z,23.30
2022-08-01T18:50:09.826Z,23.20
2022-08-01T18:52:41.511Z,23.00
2022-08-01T18:55:13.205Z,23.10
2022-08-01T18:57:46.236Z,23.20
2022-08-01T19:00:18.022Z,23.00
2022-08-01T19:02:49.720Z,22.90
2022-08-01T19:05:21.512Z,22.90
2022-08-01T19:08:06.322Z,22.70
2022-08-01T19:10:39.292Z,22.80
2022-08-01T19:13:12.373Z,22.70
2022-08-01T19:15:44.157Z,22.70
2022-08-01T19:18:15.855Z,22.50
2022-08-01T19:20:47.538Z,22.50
2022-08-01T19:23:19.294Z,22.40
2022-08-01T19:25:56.123Z,22.40
2022-08-01T19:28:29.324Z,22.30
2022-08-01T19:31:01.003Z,22.20
2022-08-01T19:33:32.879Z,22.20
2022-08-01T19:36:05.196Z,22.10
2022-08-01T19:38:36.914Z,22.10
2022-08-01T19:41:08.653Z,22.00
2022-08-01T19:43:46.739Z,22.10
2022-08-01T19:46:18.563Z,22.00
2022-08-01T19:48:53.952Z,21.90
2022-08-01T19:51:33.223Z,21.90
2022-08-01T19:54:06.200Z,21.90
2022-08-01T19:56:39.119Z,21.80
2022-08-01T19:59:14.725Z,21.80
2022-08-01T20:01:47.062Z,21.30
2022-08-01T20:04:18.832Z,21.70
2022-08-01T20:06:50.573Z,21.60
2022-08-01T20:09:22.309Z,21.50
2022-08-01T20:11:54.172Z,21.40
2022-08-01T20:14:27.415Z,21.50
2022-08-01T21:19:18.416Z,20.50
2022-08-01T21:21:51.115Z,20.50
2022-08-01T21:34:32.872Z,20.20
2022-08-01T21:37:05.621Z,20.10
2022-08-01T21:39:37.439Z,20.10
2022-08-01T21:42:09.639Z,20.00
2022-08-01T21:44:43.676Z,19.90
2022-08-01T21:52:21.526Z,19.60
2022-08-01T21:55:00.587Z,19.70
2022-08-01T21:57:45.121Z,19.80
